createdAt,value
2018-04-23T00:00:15.054Z,99912
2018-04-23T00:05:16.584Z,99908
2018-04-23T00:10:18.151Z,99906
2018-04-23T00:15:19.687Z,99899
2018-04-23T00:20:21.208Z,99889
2018-04-23T00:25:22.737Z,99895
2018-04-23T00:30:24.283Z,99896
2018-04-23T00:35:25.863Z,99906
2018-04-23T00:40:27.379Z,99905
2018-04-23T00:45:28.887Z,99914
2018-04-23T00:50:30.434Z,99906
2018-04-23T00:55:32.741Z,99905
2018-04-23T01:00:34.259Z,99897
2018-04-23T01:05:35.874Z,99887
2018-04-23T01:10:38.141Z,99887
2018-04-23T01:15:40.411Z,99885
2018-04-23T01:20:41.967Z,99900
2018-04-23T01:25:43.544Z,99895
2018-04-23T01:30:45.126Z,99900
2018-04-23T01:35:46.650Z,99905
2018-04-23T01:40:48.287Z,99894
2018-04-23T01:45:50.570Z,99908
2018-04-23T01:50:52.355Z,99914
2018-04-23T01:55:53.966Z,99915
2018-04-23T02:00:55.500Z,99925
2018-04-23T02:05:57.017Z,99931
2018-04-23T02:10:58.550Z,99941
2018-04-23T02:16:00.072Z,99931
2018-04-23T02:21:02.481Z,99935
2018-04-23T02:26:04.020Z,99935
2018-04-23T02:31:05.533Z,99921
2018-04-23T02:36:07.056Z,99925
2018-04-23T02:41:08.591Z,99919
2018-04-23T02:46:10.139Z,99912
2018-04-23T02:51:11.724Z,99927
2018-04-23T02:56:13.269Z,99918
2018-04-23T03:01:14.772Z,99910
2018-04-23T03:06:16.279Z,99899
2018-04-23T03:11:18.517Z,99911
2018-04-23T03:16:20.032Z,99917
2018-04-23T03:21:22.320Z,99910
2018-04-23T03:26:24.674Z,99931
2018-04-23T03:31:26.203Z,99919
2018-04-23T03:36:27.702Z,99916
2018-04-23T03:41:29.206Z,99927
2018-04-23T03:46:31.576Z,99933
2018-04-23T03:51:33.149Z,99940
2018-04-23T03:56:35.410Z,99939
2018-04-23T04:01:36.960Z,99938
2018-04-23T04:06:38.521Z,99938
2018-04-23T04:11:40.134Z,99934
2018-04-23T04:16:53.763Z,99931
2018-04-23T04:21:55.279Z,99934
2018-04-23T04:27:01.168Z,99928
2018-04-23T04:32:02.693Z,99939
2018-04-23T04:37:04.218Z,99935
2018-04-23T04:42:05.779Z,99944
2018-04-23T04:47:07.297Z,99944
2018-04-23T04:52:09.601Z,99955
2018-04-23T04:57:11.970Z,99940
2018-04-23T05:02:14.237Z,99932
2018-04-23T05:07:15.768Z,99931
2018-04-23T05:12:17.370Z,99936
2018-04-23T05:17:19.071Z,99943
2018-04-23T05:22:21.341Z,99936
2018-04-23T05:27:22.870Z,99955
2018-04-23T05:32:24.440Z,99961
2018-04-23T05:37:26.015Z,99960
2018-04-23T05:42:27.553Z,99972
2018-04-23T05:47:29.113Z,99971
2018-04-23T05:52:30.685Z,99976
2018-04-23T05:57:32.264Z,99980
2018-04-23T06:02:33.815Z,99996
2018-04-23T06:07:35.385Z,100006
2018-04-23T06:12:36.961Z,100033
2018-04-23T06:17:38.483Z,100026
2018-04-23T06:22:40.117Z,100033
2018-04-23T06:27:41.690Z,100035
2018-04-23T06:32:43.295Z,100043
2018-04-23T06:37:44.934Z,100042
2018-04-23T06:42:46.739Z,100043
2018-04-23T06:47:48.344Z,100055
2018-04-23T06:52:49.907Z,100045
2018-04-23T06:57:52.192Z,100042
2018-04-23T07:02:54.461Z,100048
2018-04-23T07:07:56.751Z,100052
2018-04-23T07:12:59.021Z,100057
2018-04-23T07:18:00.732Z,100056
2018-04-23T07:23:02.256Z,100061
2018-04-23T07:28:03.810Z,100062
2018-04-23T07:33:05.333Z,100067
2018-04-23T07:38:06.945Z,100063
2018-04-23T07:43:08.479Z,100066
2018-04-23T07:48:10.037Z,100080
2018-04-23T07:53:11.639Z,100093
2018-04-23T07:58:13.225Z,100083
2018-04-23T08:03:14.824Z,100094
2018-04-23T08:08:17.263Z,100096
2018-04-23T08:13:18.841Z,100103
2018-04-23T08:18:20.376Z,100102
2018-04-23T08:23:21.937Z,100120
2018-04-23T08:28:23.516Z,100126
2018-04-23T08:33:25.055Z,100128
2018-04-23T08:38:27.359Z,100137
2018-04-23T08:43:28.901Z,100134
2018-04-23T08:48:30.451Z,100133
2018-04-23T08:53:32.165Z,100118
2018-04-23T08:58:34.475Z,100137
2018-04-23T09:03:36.247Z,100136
2018-04-23T09:08:37.776Z,100126
2018-04-23T09:13:40.094Z,100125
2018-04-23T09:18:41.655Z,100134
2018-04-23T09:23:43.188Z,100125
2018-04-23T09:28:46.621Z,100127
2018-04-23T09:33:48.875Z,100136
2018-04-23T09:38:50.382Z,100128
2018-04-23T09:43:58.890Z,100126
2018-04-23T09:49:01.184Z,100117
2018-04-23T09:54:03.491Z,100119
2018-04-23T09:59:05.044Z,100126
2018-04-23T10:04:06.583Z,100121
2018-04-23T10:09:08.202Z,100124
2018-04-23T10:14:16.833Z,100123
2018-04-23T10:19:18.531Z,100120
2018-04-23T10:24:20.769Z,100110
2018-04-23T10:29:23.063Z,100107
2018-04-23T10:34:24.807Z,100110
2018-04-23T10:39:26.378Z,100111
2018-04-23T10:44:28.710Z,100104
2018-04-23T10:49:30.348Z,100096
2018-04-23T10:54:32.684Z,100104
2018-04-23T10:59:34.316Z,100092
2018-04-23T11:04:35.991Z,100084
2018-04-23T11:09:37.688Z,100090
2018-04-23T11:14:40.979Z,100084
2018-04-23T11:19:42.614Z,100070
2018-04-23T11:24:44.207Z,100067
2018-04-23T11:29:45.736Z,100061
2018-04-23T11:34:47.266Z,100036
2018-04-23T11:39:48.838Z,100044
2018-04-23T11:44:50.405Z,100073
2018-04-23T11:49:51.983Z,100070
2018-04-23T11:54:53.777Z,100068
2018-04-23T11:59:55.403Z,100065
2018-04-23T12:04:57.188Z,100059
2018-04-23T12:09:58.788Z,100060
2018-04-23T12:15:00.390Z,100056
2018-04-23T12:20:02.191Z,100045
2018-04-23T12:25:03.787Z,100045
2018-04-23T12:30:05.329Z,100047
2018-04-23T12:35:06.844Z,100045
2018-04-23T12:40:08.517Z,100045
2018-04-23T12:45:10.103Z,100042
2018-04-23T12:50:12.449Z,100032
2018-04-23T12:55:14.080Z,100015
2018-04-23T13:00:15.627Z,99997
2018-04-23T13:05:17.298Z,99989
2018-04-23T13:10:19.593Z,99984
2018-04-23T13:15:21.902Z,99985
2018-04-23T13:20:23.461Z,99983
2018-04-23T13:25:25.026Z,99980
2018-04-23T13:30:27.352Z,99999
2018-04-23T13:35:29.668Z,99993
2018-04-23T13:40:31.219Z,99983
2018-04-23T13:45:32.720Z,99979
2018-04-23T13:50:34.309Z,99973
2018-04-23T13:55:43.044Z,99970
2018-04-23T14:00:44.626Z,99964
2018-04-23T14:05:46.210Z,99971
2018-04-23T14:10:47.801Z,99975
2018-04-23T14:15:49.364Z,99982
2018-04-23T14:20:50.955Z,99977
2018-04-23T14:25:52.492Z,99981
2018-04-23T14:30:54.070Z,99971
2018-04-23T14:35:55.637Z,99958
2018-04-23T14:40:57.230Z,99961
2018-04-23T14:45:58.837Z,99955
2018-04-23T14:51:00.425Z,99959
2018-04-23T14:56:01.999Z,99966
2018-04-23T15:01:03.602Z,99984
2018-04-23T15:06:05.201Z,99988
2018-04-23T15:11:06.931Z,99992
2018-04-23T15:16:08.543Z,99995
2018-04-23T15:21:10.195Z,99991
2018-04-23T15:26:12.560Z,99996
2018-04-23T15:31:14.163Z,100013
2018-04-23T15:36:16.709Z,100008
2018-04-23T15:41:18.338Z,100017
2018-04-23T15:46:19.955Z,100022
2018-04-23T15:51:21.549Z,100010
2018-04-23T15:56:23.160Z,100027
2018-04-23T16:01:25.039Z,100034
2018-04-23T16:06:26.609Z,100033
2018-04-23T16:11:28.157Z,100037
2018-04-23T16:16:29.699Z,100023
2018-04-23T16:21:31.999Z,100028
2018-04-23T16:26:34.323Z,100045
2018-04-23T16:31:35.917Z,100051
2018-04-23T16:36:37.812Z,100064
2018-04-23T16:41:39.380Z,100079
2018-04-23T16:46:40.914Z,100076
2018-04-23T16:51:42.428Z,100086
2018-04-23T16:56:44.799Z,100080
2018-04-23T17:01:46.480Z,100092
2018-04-23T17:06:48.060Z,100084
2018-04-23T17:11:50.421Z,100087
2018-04-23T17:16:52.076Z,100090
2018-04-23T17:21:53.712Z,100103
2018-04-23T17:26:55.751Z,100103
2018-04-23T17:31:57.435Z,100114
2018-04-23T17:36:59.755Z,100113
2018-04-23T17:42:01.479Z,100119
2018-04-23T17:47:03.264Z,100122
2018-04-23T17:52:04.818Z,100113
2018-04-23T17:57:06.410Z,100132
2018-04-23T18:02:08.731Z,100129
2018-04-23T18:07:10.309Z,100138
2018-04-23T18:12:12.067Z,100137
2018-04-23T18:17:13.724Z,100138
2018-04-23T18:22:16.072Z,100147
2018-04-23T18:27:17.680Z,100148
2018-04-23T18:32:19.273Z,100152
2018-04-23T18:37:20.852Z,100158
2018-04-23T18:42:22.421Z,100173
2018-04-23T18:47:23.900Z,100171
2018-04-23T18:52:25.456Z,100185
2018-04-23T18:57:27.092Z,100187
2018-04-23T19:02:29.451Z,100191
2018-04-23T19:07:31.137Z,100201
2018-04-23T19:12:34.187Z,100207
2018-04-23T19:17:35.753Z,100206
2018-04-23T19:22:37.402Z,100234
2018-04-23T19:27:39.221Z,100239
2018-04-23T19:32:40.787Z,100233
2018-04-23T19:37:42.391Z,100235
2018-04-23T19:42:44.832Z,100238
2018-04-23T19:47:46.486Z,100231
2018-04-23T19:52:48.146Z,100245
2018-04-23T19:57:49.755Z,100245
2018-04-23T20:02:51.333Z,100251
2018-04-23T20:07:52.914Z,100259
2018-04-23T20:12:54.536Z,100254
2018-04-23T20:17:56.179Z,100254
2018-04-23T20:22:58.621Z,100258
2018-04-23T20:28:00.163Z,100258
2018-04-23T20:33:01.848Z,100265
2018-04-23T20:38:03.814Z,100268
2018-04-23T20:43:05.361Z,100271
2018-04-23T20:48:07.047Z,100264
2018-04-23T20:53:08.990Z,100270
2018-04-23T20:58:10.676Z,100266
2018-04-23T21:03:13.003Z,100271
2018-04-23T21:08:14.591Z,100278
2018-04-23T21:13:16.272Z,100284
2018-04-23T21:18:18.075Z,100290
2018-04-23T21:23:19.695Z,100294
2018-04-23T21:28:21.277Z,100288
2018-04-23T21:33:22.825Z,100292
2018-04-23T21:38:24.410Z,100308
2018-04-23T21:43:26.020Z,100308
2018-04-23T21:48:27.544Z,100319
2018-04-23T21:53:29.183Z,100321
2018-04-23T21:58:30.860Z,100318
2018-04-23T22:03:32.414Z,100332
2018-04-23T22:08:33.938Z,100332
2018-04-23T22:13:35.503Z,100331
2018-04-23T22:18:37.041Z,100333
2018-04-23T22:23:38.787Z,100319
2018-04-23T22:28:40.420Z,100330
2018-04-23T22:33:41.960Z,100331
2018-04-23T22:38:43.568Z,100344
2018-04-23T22:43:45.842Z,100340
2018-04-23T22:48:47.510Z,100344
2018-04-23T22:53:49.184Z,100349
2018-04-23T22:58:50.774Z,100343
2018-04-23T23:03:53.113Z,100349
2018-04-23T23:08:54.669Z,100358
2018-04-23T23:13:56.176Z,100355
2018-04-23T23:18:58.482Z,100356
2018-04-23T23:23:59.986Z,100353
2018-04-23T23:29:01.531Z,100359
2018-04-23T23:34:03.111Z,100362
2018-04-23T23:39:05.658Z,100360
2018-04-23T23:44:07.310Z,100360
2018-04-23T23:49:08.895Z,100370
2018-04-23T23:54:10.492Z,100365
2018-04-23T23:59:12.176Z,100364
